Time,TemperatureF,DewpointF,PressureIn,WindDirection,WindDirectionDegrees,WindSpeedMPH,WindSpeedGustMPH,Humidity,HourlyPrecipIn,Conditions,Clouds,dailyrainin,SoftwareType,DateUTC
2013-01-02 00:05:00,17.1,-3.6,30.02,West,276,5.0,11.0,39,0.00,,,-99.99,Weather View 32 v60,2013-01-02 05:05:00,
2013-01-02 00:10:00,16.9,-3.8,30.02,WSW,257,5.0,11.0,39,0.00,,,-99.99,Weather View 32 v60,2013-01-02 05:10:00,
2013-01-02 00:15:00,16.9,-3.8,30.02,WSW,257,3.0,11.0,39,0.00,,,-99.99,Weather View 32 v60,2013-01-02 05:15:00,
2013-01-02 00:20:00,16.9,-3.8,30.02,WSW,258,3.0,10.0,39,0.00,,,-99.99,Weather View 32 v60,2013-01-02 05:20:00,
2013-01-02 00:30:00,16.9,-3.8,30.02,WSW,253,4.0,9.0,39,0.00,,,-99.99,Weather View 32 v60,2013-01-02 05:30:00,
2013-01-02 00:35:00,16.9,-3.8,30.02,WSW,250,3.0,8.0,39,0.00,,,-99.99,Weather View 32 v60,2013-01-02 05:35:00,
2013-01-02 00:40:00,16.7,-4.0,30.02,West,259,3.0,8.0,39,0.00,,,-99.99,Weather View 32 v60,2013-01-02 05:40:00,
2013-01-02 00:45:00,16.7,-3.4,30.02,West,268,3.0,8.0,40,0.00,,,-99.99,Weather View 32 v60,2013-01-02 05:45:00,
2013-01-02 00:50:00,16.7,-3.4,30.02,West,275,6.0,8.0,40,0.00,,,-99.99,Weather View 32 v60,2013-01-02 05:50:00,
2013-01-02 00:55:00,16.7,-3.4,30.02,West,260,4.0,8.0,40,0.00,,,-99.99,Weather View 32 v60,2013-01-02 05:55:00,
2013-01-02 01:00:00,16.7,-3.4,30.02,WSW,256,4.0,8.0,40,0.00,,,-99.99,Weather View 32 v60,2013-01-02 06:00:00,
2013-01-02 01:05:00,16.5,-3.6,30.02,WSW,256,3.0,6.0,40,0.00,,,-99.99,Weather View 32 v60,2013-01-02 06:05:00,
2013-01-02 01:10:00,16.5,-3.6,30.02,West,263,3.0,6.0,40,0.00,,,-99.99,Weather View 32 v60,2013-01-02 06:10:00,
2013-01-02 01:15:00,16.5,-3.6,30.02,WSW,252,3.0,6.0,40,0.00,,,-99.99,Weather View 32 v60,2013-01-02 06:15:00,
2013-01-02 01:20:00,16.5,-3.6,30.02,West,274,4.0,6.0,40,0.00,,,-99.99,Weather View 32 v60,2013-01-02 06:20:00,
2013-01-02 01:25:00,16.5,-3.6,30.02,WSW,248,4.0,6.0,40,0.00,,,-99.99,Weather View 32 v60,2013-01-02 06:25:00,
2013-01-02 01:30:00,16.3,-3.8,30.02,West,269,4.0,6.0,40,0.00,,,-99.99,Weather View 32 v60,2013-01-02 06:30:00,
2013-01-02 01:35:00,16.2,-3.9,30.02,West,266,4.0,6.0,40,0.00,,,-99.99,Weather View 32 v60,2013-01-02 06:35:00,
2013-01-02 01:40:00,16.2,-3.9,30.02,West,270,4.0,6.0,40,0.00,,,-99.99,Weather View 32 v60,2013-01-02 06:40:00,
2013-01-02 01:45:00,16.2,-3.9,30.02,West,266,3.0,6.0,40,0.00,,,-99.99,Weather View 32 v60,2013-01-02 06:45:00,
2013-01-02 01:50:00,16.0,-4.1,30.02,West,271,3.0,6.0,40,0.00,,,-99.99,Weather View 32 v60,2013-01-02 06:50:00,
2013-01-02 01:55:00,16.0,-4.1,30.02,West,260,4.0,6.0,40,0.00,,,-99.99,Weather View 32 v60,2013-01-02 06:55:00,
2013-01-02 02:00:00,15.8,-3.7,30.02,West,259,2.0,6.0,41,0.00,,,-99.99,Weather View 32 v60,2013-01-02 07:00:00,
2013-01-02 02:05:00,15.8,-3.7,30.02,WSW,255,0.0,6.0,41,0.00,,,-99.99,Weather View 32 v60,2013-01-02 07:05:00,
2013-01-02 02:10:00,15.8,-3.7,30.02,WSW,254,3.0,6.0,41,0.00,,,-99.99,Weather View 32 v60,2013-01-02 07:10:00,
2013-01-02 02:15:00,15.6,-3.9,30.02,WSW,250,3.0,6.0,41,0.00,,,-99.99,Weather View 32 v60,2013-01-02 07:15:00,
2013-01-02 02:20:00,15.6,-3.9,30.02,WSW,250,0.0,5.0,41,0.00,,,-99.99,Weather View 32 v60,2013-01-02 07:20:00,
2013-01-02 02:25:00,15.4,-4.1,30.02,WSW,246,3.0,5.0,41,0.00,,,-99.99,Weather View 32 v60,2013-01-02 07:25:00,
2013-01-02 02:30:00,15.4,-4.1,30.02,WSW,246,0.0,5.0,41,0.00,,,-99.99,Weather View 32 v60,2013-01-02 07:30:00,
2013-01-02 02:35:00,15.3,-4.2,30.02,WSW,245,4.0,5.0,41,0.00,,,-99.99,Weather View 32 v60,2013-01-02 07:35:00,
2013-01-02 02:40:00,15.3,-4.2,30.02,WSW,253,2.0,4.0,41,0.00,,,-99.99,Weather View 32 v60,2013-01-02 07:40:00,
2013-01-02 02:45:00,15.1,-4.4,30.02,WSW,253,0.0,4.0,41,0.00,,,-99.99,Weather View 32 v60,2013-01-02 07:45:00,
2013-01-02 02:50:00,15.1,-4.4,30.02,WSW,253,0.0,4.0,41,0.00,,,-99.99,Weather View 32 v60,2013-01-02 07:50:00,
2013-01-02 02:55:00,14.9,-4.6,30.02,WSW,253,0.0,4.0,41,0.00,,,-99.99,Weather View 32 v60,2013-01-02 07:55:00,
2013-01-02 03:05:00,14.5,-4.9,30.02,WSW,253,0.0,4.0,41,0.00,,,-99.99,Weather View 32 v60,2013-01-02 08:05:00,
2013-01-02 03:10:00,14.4,-5.0,30.02,WSW,253,0.0,4.0,41,0.00,,,-99.99,Weather View 32 v60,2013-01-02 08:10:00,
2013-01-02 03:20:00,14.2,-4.7,30.02,WSW,253,0.0,4.0,42,0.00,,,-99.99,Weather View 32 v60,2013-01-02 08:20:00,
2013-01-02 03:25:00,14.0,-4.9,30.02,WSW,243,0.0,4.0,42,0.00,,,-99.99,Weather View 32 v60,2013-01-02 08:25:00,
2013-01-02 03:30:00,13.8,-5.0,30.02,WSW,243,0.0,4.0,42,0.00,,,-99.99,Weather View 32 v60,2013-01-02 08:30:00,
2013-01-02 03:35:00,13.8,-5.0,30.02,WSW,243,0.0,4.0,42,0.00,,,-99.99,Weather View 32 v60,2013-01-02 08:35:00,
2013-01-02 03:45:00,13.8,-5.0,30.02,SW,236,0.0,3.0,42,0.00,,,-99.99,Weather View 32 v60,2013-01-02 08:45:00,
2013-01-02 03:50:00,13.8,-5.0,30.02,SW,235,0.0,3.0,42,0.00,,,-99.99,Weather View 32 v60,2013-01-02 08:50:00,
2013-01-02 03:55:00,13.8,-5.0,30.05,SW,234,0.0,3.0,42,0.00,,,-99.99,Weather View 32 v60,2013-01-02 08:55:00,
2013-01-02 04:00:00,13.8,-5.0,30.05,WSW,240,0.0,4.0,42,0.00,,,-99.99,Weather View 32 v60,2013-01-02 09:00:00,
2013-01-02 04:05:00,14.0,-3.9,30.05,WSW,255,0.0,4.0,44,0.00,,,-99.99,Weather View 32 v60,2013-01-02 09:05:00,
2013-01-02 04:10:00,14.2,-3.7,30.05,West,259,3.0,4.0,44,0.00,,,-99.99,Weather View 32 v60,2013-01-02 09:10:00,
2013-01-02 04:15:00,14.4,-3.6,30.05,WSW,243,0.0,4.0,44,0.00,,,-99.99,Weather View 32 v60,2013-01-02 09:15:00,
2013-01-02 04:20:00,14.4,-3.6,30.05,SW,228,0.0,4.0,44,0.00,,,-99.99,Weather View 32 v60,2013-01-02 09:20:00,
2013-01-02 04:25:00,14.5,-3.4,30.05,SW,222,2.0,4.0,44,0.00,,,-99.99,Weather View 32 v60,2013-01-02 09:25:00,
2013-01-02 04:30:00,14.7,-3.2,30.05,SSW,209,0.0,4.0,44,0.00,,,-99.99,Weather View 32 v60,2013-01-02 09:30:00,
2013-01-02 04:35:00,14.9,-3.1,30.05,SW,232,0.0,4.0,44,0.00,,,-99.99,Weather View 32 v60,2013-01-02 09:35:00,
2013-01-02 04:45:00,15.1,-2.9,30.05,WSW,239,0.0,5.0,44,0.00,,,-99.99,Weather View 32 v60,2013-01-02 09:45:00,
2013-01-02 04:50:00,15.3,-2.7,30.05,WSW,238,0.0,5.0,44,0.00,,,-99.99,Weather View 32 v60,2013-01-02 09:50:00,
2013-01-02 04:55:00,15.3,-2.7,30.05,WSW,244,0.0,5.0,44,0.00,,,-99.99,Weather View 32 v60,2013-01-02 09:55:00,
2013-01-02 05:00:00,15.4,-2.6,30.05,WSW,247,0.0,5.0,44,0.00,,,-99.99,Weather View 32 v60,2013-01-02 10:00:00,
2013-01-02 05:05:00,15.6,-2.4,30.05,South,183,0.0,5.0,44,0.00,,,-99.99,Weather View 32 v60,2013-01-02 10:05:00,
2013-01-02 05:10:00,15.8,-2.3,30.05,SW,226,0.0,5.0,44,0.00,,,-99.99,Weather View 32 v60,2013-01-02 10:10:00,
2013-01-02 05:15:00,15.8,-2.3,30.05,WSW,239,3.0,6.0,44,0.00,,,-99.99,Weather View 32 v60,2013-01-02 10:15:00,
2013-01-02 05:20:00,16.0,-2.1,30.05,WSW,238,0.0,6.0,44,0.00,,,-99.99,Weather View 32 v60,2013-01-02 10:20:00,
2013-01-02 05:25:00,16.2,-1.9,30.05,WSW,256,5.0,6.0,44,0.00,,,-99.99,Weather View 32 v60,2013-01-02 10:25:00,
2013-01-02 05:30:00,16.3,-1.8,30.05,WSW,244,6.0,8.0,44,0.00,,,-99.99,Weather View 32 v60,2013-01-02 10:30:00,
2013-01-02 05:35:00,16.5,-1.6,30.02,West,269,6.0,8.0,44,0.00,,,-99.99,Weather View 32 v60,2013-01-02 10:35:00,
2013-01-02 05:40:00,16.9,-0.8,30.02,West,281,7.0,9.0,45,0.00,,,-99.99,Weather View 32 v60,2013-01-02 10:40:00,
2013-01-02 05:50:00,17.6,-0.1,30.02,WNW,293,8.0,10.0,45,0.00,,,-99.99,Weather View 32 v60,2013-01-02 10:50:00,
2013-01-02 05:55:00,18.0,0.2,30.02,WSW,254,9.0,11.0,45,0.00,,,-99.99,Weather View 32 v60,2013-01-02 10:55:00,
2013-01-02 06:00:00,18.1,0.4,30.02,West,261,9.0,11.0,45,0.00,,,-99.99,Weather View 32 v60,2013-01-02 11:00:00,
2013-01-02 06:05:00,18.5,0.7,30.02,West,271,8.0,11.0,45,0.00,,,-99.99,Weather View 32 v60,2013-01-02 11:05:00,
2013-01-02 06:10:00,18.7,0.9,30.02,West,277,11.0,12.0,45,0.00,,,-99.99,Weather View 32 v60,2013-01-02 11:10:00,
2013-01-02 06:20:00,19.2,1.4,30.05,WNW,282,7.0,12.0,45,0.00,,,-99.99,Weather View 32 v60,2013-01-02 11:20:00,
2013-01-02 06:25:00,19.2,1.4,30.05,West,275,10.0,12.0,45,0.00,,,-99.99,Weather View 32 v60,2013-01-02 11:25:00,
2013-01-02 06:30:00,19.4,1.5,30.05,WNW,288,10.0,12.0,45,0.00,,,-99.99,Weather View 32 v60,2013-01-02 11:30:00,
2013-01-02 06:35:00,19.6,1.2,30.05,WNW,293,8.0,12.0,44,0.00,,,-99.99,Weather View 32 v60,2013-01-02 11:35:00,
2013-01-02 06:40:00,19.8,1.4,30.05,WNW,286,9.0,12.0,44,0.00,,,-99.99,Weather View 32 v60,2013-01-02 11:40:00,
2013-01-02 06:45:00,19.8,1.4,30.05,WNW,284,6.0,12.0,44,0.00,,,-99.99,Weather View 32 v60,2013-01-02 11:45:00,
2013-01-02 06:50:00,19.9,1.5,30.05,WNW,287,6.0,12.0,44,0.00,,,-99.99,Weather View 32 v60,2013-01-02 11:50:00,
2013-01-02 06:55:00,19.9,1.5,30.05,WSW,248,7.0,12.0,44,0.00,,,-99.99,Weather View 32 v60,2013-01-02 11:55:00,
2013-01-02 07:05:00,20.1,1.7,30.05,NW,306,6.0,12.0,44,0.00,,,-99.99,Weather View 32 v60,2013-01-02 12:05:00,
2013-01-02 07:10:00,20.1,1.7,30.05,NW,304,6.0,12.0,44,0.00,,,-99.99,Weather View 32 v60,2013-01-02 12:10:00,
2013-01-02 07:15:00,20.1,1.7,30.05,WNW,295,5.0,12.0,44,0.00,,,-99.99,Weather View 32 v60,2013-01-02 12:15:00,
2013-01-02 07:20:00,20.1,1.7,30.05,WNW,297,5.0,12.0,44,0.00,,,-99.99,Weather View 32 v60,2013-01-02 12:20:00,
2013-01-02 07:25:00,20.3,1.9,30.05,WNW,283,4.0,12.0,44,0.00,,,-99.99,Weather View 32 v60,2013-01-02 12:25:00,
2013-01-02 07:30:00,20.3,1.9,30.05,WNW,291,8.0,11.0,44,0.00,,,-99.99,Weather View 32 v60,2013-01-02 12:30:00,
2013-01-02 07:35:00,20.3,1.9,30.05,WNW,291,6.0,11.0,44,0.00,,,-99.99,Weather View 32 v60,2013-01-02 12:35:00,
2013-01-02 07:40:00,20.3,1.9,30.05,West,274,5.0,11.0,44,0.00,,,-99.99,Weather View 32 v60,2013-01-02 12:40:00,
2013-01-02 07:45:00,20.3,1.9,30.05,WNW,293,6.0,10.0,44,0.00,,,-99.99,Weather View 32 v60,2013-01-02 12:45:00,
2013-01-02 07:50:00,20.3,1.9,30.05,West,277,4.0,10.0,44,0.00,,,-99.99,Weather View 32 v60,2013-01-02 12:50:00,
2013-01-02 07:55:00,20.5,2.0,30.05,WNW,292,6.0,10.0,44,0.00,,,-99.99,Weather View 32 v60,2013-01-02 12:55:00,
2013-01-02 08:00:00,20.5,2.0,30.05,WNW,286,6.0,9.0,44,0.00,,,-99.99,Weather View 32 v60,2013-01-02 13:00:00,
2013-01-02 08:05:00,20.5,2.0,30.05,NW,309,5.0,9.0,44,0.00,,,-99.99,Weather View 32 v60,2013-01-02 13:05:00,
2013-01-02 08:10:00,20.5,2.0,30.05,NW,309,4.0,9.0,44,0.00,,,-99.99,Weather View 32 v60,2013-01-02 13:10:00,
2013-01-02 08:15:00,20.7,2.2,30.05,WNW,303,6.0,9.0,44,0.00,,,-99.99,Weather View 32 v60,2013-01-02 13:15:00,
2013-01-02 08:25:00,20.7,2.2,30.08,WNW,296,8.0,9.0,44,0.00,,,-99.99,Weather View 32 v60,2013-01-02 13:25:00,
2013-01-02 08:30:00,20.7,2.2,30.08,West,276,5.0,9.0,44,0.00,,,-99.99,Weather View 32 v60,2013-01-02 13:30:00,
2013-01-02 08:35:00,20.8,2.4,30.08,WNW,295,5.0,9.0,44,0.00,,,-99.99,Weather View 32 v60,2013-01-02 13:35:00,
2013-01-02 08:45:00,20.8,2.4,30.08,WSW,252,6.0,9.0,44,0.00,,,-99.99,Weather View 32 v60,2013-01-02 13:45:00,
2013-01-02 08:50:00,20.8,2.4,30.08,WNW,283,8.0,10.0,44,0.00,,,-99.99,Weather View 32 v60,2013-01-02 13:50:00,
2013-01-02 09:00:00,21.0,2.5,30.08,NW,306,3.0,11.0,44,0.00,,,-99.99,Weather View 32 v60,2013-01-02 14:00:00,
2013-01-02 09:10:00,21.0,2.5,30.08,NW,305,4.0,11.0,44,0.00,,,-99.99,Weather View 32 v60,2013-01-02 14:10:00,
2013-01-02 09:15:00,21.0,2.5,30.08,WNW,294,5.0,11.0,44,0.00,,,-99.99,Weather View 32 v60,2013-01-02 14:15:00,
2013-01-02 09:20:00,21.0,2.5,30.08,WNW,293,6.0,11.0,44,0.00,,,-99.99,Weather View 32 v60,2013-01-02 14:20:00,
2013-01-02 09:25:00,21.0,2.5,30.08,NW,306,5.0,11.0,44,0.00,,,-99.99,Weather View 32 v60,2013-01-02 14:25:00,
2013-01-02 09:30:00,21.2,2.7,30.08,WNW,285,6.0,11.0,44,0.00,,,-99.99,Weather View 32 v60,2013-01-02 14:30:00,
2013-01-02 09:35:00,21.2,2.7,30.08,NW,305,6.0,11.0,44,0.00,,,-99.99,Weather View 32 v60,2013-01-02 14:35:00,
2013-01-02 09:40:00,21.2,2.7,30.08,NW,307,5.0,11.0,44,0.00,,,-99.99,Weather View 32 v60,2013-01-02 14:40:00,
2013-01-02 09:45:00,21.2,2.7,30.08,NW,308,3.0,11.0,44,0.00,,,-99.99,Weather View 32 v60,2013-01-02 14:45:00,
2013-01-02 09:50:00,21.2,2.7,30.08,WNW,292,8.0,11.0,44,0.00,,,-99.99,Weather View 32 v60,2013-01-02 14:50:00,
2013-01-02 09:55:00,21.2,2.7,30.08,WNW,303,5.0,10.0,44,0.00,,,-99.99,Weather View 32 v60,2013-01-02 14:55:00,
2013-01-02 10:00:00,21.2,2.7,30.08,WNW,303,4.0,9.0,44,0.00,,,-99.99,Weather View 32 v60,2013-01-02 15:00:00,
2013-01-02 10:05:00,21.2,2.7,30.08,WNW,287,5.0,9.0,44,0.00,,,-99.99,Weather View 32 v60,2013-01-02 15:05:00,
2013-01-02 10:10:00,21.2,2.7,30.11,WNW,290,6.0,9.0,44,0.00,,,-99.99,Weather View 32 v60,2013-01-02 15:10:00,
2013-01-02 10:15:00,21.2,2.7,30.11,NW,312,4.0,9.0,44,0.00,,,-99.99,Weather View 32 v60,2013-01-02 15:15:00,
2013-01-02 10:20:00,21.2,2.7,30.11,WNW,300,3.0,9.0,44,0.00,,,-99.99,Weather View 32 v60,2013-01-02 15:20:00,
2013-01-02 10:25:00,21.2,2.7,30.11,WNW,293,5.0,9.0,44,0.00,,,-99.99,Weather View 32 v60,2013-01-02 15:25:00,
2013-01-02 10:30:00,21.2,3.2,30.11,West,280,5.0,9.0,45,0.00,,,-99.99,Weather View 32 v60,2013-01-02 15:30:00,
2013-01-02 10:35:00,21.2,3.2,30.11,NW,306,4.0,9.0,45,0.00,,,-99.99,Weather View 32 v60,2013-01-02 15:35:00,
2013-01-02 10:40:00,21.2,3.2,30.11,WNW,299,2.0,9.0,45,0.00,,,-99.99,Weather View 32 v60,2013-01-02 15:40:00,
2013-01-02 10:45:00,21.2,3.2,30.11,WNW,290,5.0,9.0,45,0.00,,,-99.99,Weather View 32 v60,2013-01-02 15:45:00,
2013-01-02 10:50:00,21.4,3.3,30.11,WNW,290,6.0,9.0,45,0.00,,,-99.99,Weather View 32 v60,2013-01-02 15:50:00,
2013-01-02 10:55:00,21.4,3.3,30.11,West,277,4.0,8.0,45,0.00,,,-99.99,Weather View 32 v60,2013-01-02 15:55:00,
2013-01-02 11:00:00,21.4,3.3,30.11,WNW,292,4.0,8.0,45,0.00,,,-99.99,Weather View 32 v60,2013-01-02 16:00:00,
2013-01-02 11:05:00,21.4,3.3,30.11,WNW,302,4.0,8.0,45,0.00,,,-99.99,Weather View 32 v60,2013-01-02 16:05:00,
2013-01-02 11:10:00,21.4,3.3,30.11,WNW,298,4.0,8.0,45,0.00,,,-99.99,Weather View 32 v60,2013-01-02 16:10:00,
2013-01-02 11:15:00,21.4,3.3,30.11,NW,304,4.0,6.0,45,0.00,,,-99.99,Weather View 32 v60,2013-01-02 16:15:00,
2013-01-02 11:20:00,21.4,3.3,30.11,WNW,293,4.0,6.0,45,0.00,,,-99.99,Weather View 32 v60,2013-01-02 16:20:00,
2013-01-02 11:30:00,21.6,4.0,30.11,WNW,295,3.0,6.0,46,0.00,,,-99.99,Weather View 32 v60,2013-01-02 16:30:00,
2013-01-02 11:35:00,21.6,4.0,30.11,WNW,295,3.0,6.0,46,0.00,,,-99.99,Weather View 32 v60,2013-01-02 16:35:00,
2013-01-02 11:40:00,21.6,4.0,30.11,WNW,295,0.0,6.0,46,0.00,,,-99.99,Weather View 32 v60,2013-01-02 16:40:00,
2013-01-02 11:45:00,21.6,4.0,30.11,WNW,295,0.0,6.0,46,0.00,,,-99.99,Weather View 32 v60,2013-01-02 16:45:00,
2013-01-02 11:50:00,21.7,4.1,30.11,WNW,295,0.0,6.0,46,0.00,,,-99.99,Weather View 32 v60,2013-01-02 16:50:00,
2013-01-02 12:00:00,21.7,4.1,30.11,WNW,295,0.0,5.0,46,0.00,,,-99.99,Weather View 32 v60,2013-01-02 17:00:00,
2013-01-02 12:05:00,21.9,4.3,30.11,WNW,295,0.0,5.0,46,0.00,,,-99.99,Weather View 32 v60,2013-01-02 17:05:00,
2013-01-02 12:10:00,21.9,4.3,30.11,WNW,293,2.0,5.0,46,0.00,,,-99.99,Weather View 32 v60,2013-01-02 17:10:00,
2013-01-02 12:15:00,21.9,4.3,30.11,WNW,302,4.0,4.0,46,0.00,,,-99.99,Weather View 32 v60,2013-01-02 17:15:00,
2013-01-02 12:20:00,21.9,4.3,30.11,WNW,288,3.0,5.0,46,0.00,,,-99.99,Weather View 32 v60,2013-01-02 17:20:00,
2013-01-02 12:25:00,22.1,4.5,30.11,WNW,303,6.0,6.0,46,0.00,,,-99.99,Weather View 32 v60,2013-01-02 17:25:00,
2013-01-02 12:30:00,22.1,4.5,30.11,WNW,300,0.0,6.0,46,0.00,,,-99.99,Weather View 32 v60,2013-01-02 17:30:00,
2013-01-02 12:35:00,22.1,4.5,30.11,WNW,300,0.0,6.0,46,0.00,,,-99.99,Weather View 32 v60,2013-01-02 17:35:00,
2013-01-02 12:40:00,22.1,4.5,30.11,WNW,297,5.0,6.0,46,0.00,,,-99.99,Weather View 32 v60,2013-01-02 17:40:00,
2013-01-02 12:45:00,22.1,4.5,30.11,WNW,295,3.0,6.0,46,0.00,,,-99.99,Weather View 32 v60,2013-01-02 17:45:00,
2013-01-02 12:55:00,22.3,4.6,30.11,WNW,291,2.0,6.0,46,0.00,,,-99.99,Weather View 32 v60,2013-01-02 17:55:00,
2013-01-02 13:05:00,22.3,4.6,30.11,West,273,0.0,6.0,46,0.00,,,-99.99,Weather View 32 v60,2013-01-02 18:05:00,
2013-01-02 13:10:00,22.5,4.8,30.11,West,275,3.0,6.0,46,0.00,,,-99.99,Weather View 32 v60,2013-01-02 18:10:00,
2013-01-02 13:15:00,22.5,4.8,30.11,West,274,0.0,6.0,46,0.00,,,-99.99,Weather View 32 v60,2013-01-02 18:15:00,
2013-01-02 13:20:00,22.5,4.8,30.11,West,272,0.0,6.0,46,0.00,,,-99.99,Weather View 32 v60,2013-01-02 18:20:00,
2013-01-02 13:25:00,22.5,4.8,30.11,West,277,0.0,6.0,46,0.00,,,-99.99,Weather View 32 v60,2013-01-02 18:25:00,
2013-01-02 13:30:00,22.5,4.8,30.11,West,277,0.0,6.0,46,0.00,,,-99.99,Weather View 32 v60,2013-01-02 18:30:00,
2013-01-02 13:35:00,22.6,5.0,30.11,WNW,296,0.0,6.0,46,0.00,,,-99.99,Weather View 32 v60,2013-01-02 18:35:00,
2013-01-02 13:40:00,22.6,5.0,30.11,WNW,286,0.0,6.0,46,0.00,,,-99.99,Weather View 32 v60,2013-01-02 18:40:00,
2013-01-02 13:45:00,22.6,5.0,30.11,WNW,286,0.0,6.0,46,0.00,,,-99.99,Weather View 32 v60,2013-01-02 18:45:00,
2013-01-02 13:50:00,22.6,5.0,30.11,WNW,286,0.0,6.0,46,0.00,,,-99.99,Weather View 32 v60,2013-01-02 18:50:00,
2013-01-02 13:55:00,22.8,5.1,30.08,WNW,286,0.0,4.0,46,0.00,,,-99.99,Weather View 32 v60,2013-01-02 18:55:00,
2013-01-02 14:00:00,22.8,5.1,30.08,WNW,286,0.0,4.0,46,0.00,,,-99.99,Weather View 32 v60,2013-01-02 19:00:00,
2013-01-02 14:05:00,22.8,5.1,30.08,WNW,286,0.0,4.0,46,0.00,,,-99.99,Weather View 32 v60,2013-01-02 19:05:00,
2013-01-02 14:10:00,22.8,5.1,30.08,WNW,286,0.0,4.0,46,0.00,,,-99.99,Weather View 32 v60,2013-01-02 19:10:00,
2013-01-02 14:15:00,22.8,5.1,30.08,WNW,284,0.0,4.0,46,0.00,,,-99.99,Weather View 32 v60,2013-01-02 19:15:00,
2013-01-02 14:20:00,22.8,5.1,30.08,WNW,284,0.0,4.0,46,0.00,,,-99.99,Weather View 32 v60,2013-01-02 19:20:00,
2013-01-02 14:25:00,23.0,5.3,30.08,WNW,284,0.0,4.0,46,0.00,,,-99.99,Weather View 32 v60,2013-01-02 19:25:00,
2013-01-02 14:30:00,23.0,5.3,30.08,WNW,284,0.0,4.0,46,0.00,,,-99.99,Weather View 32 v60,2013-01-02 19:30:00,
2013-01-02 14:35:00,23.0,5.3,30.08,WNW,284,0.0,0.0,46,0.00,,,-99.99,Weather View 32 v60,2013-01-02 19:35:00,
2013-01-02 14:40:00,23.0,5.3,30.08,WNW,284,0.0,0.0,46,0.00,,,-99.99,Weather View 32 v60,2013-01-02 19:40:00,
2013-01-02 14:45:00,23.2,5.0,30.08,North,353,4.0,4.0,45,0.00,,,-99.99,Weather View 32 v60,2013-01-02 19:45:00,
2013-01-02 14:50:00,23.2,5.0,30.08,North,353,0.0,4.0,45,0.00,,,-99.99,Weather View 32 v60,2013-01-02 19:50:00,
2013-01-02 14:55:00,23.2,5.0,30.08,North,353,0.0,4.0,45,0.00,,,-99.99,Weather View 32 v60,2013-01-02 19:55:00,
2013-01-02 15:00:00,23.2,5.0,30.08,North,353,0.0,4.0,45,0.00,,,-99.99,Weather View 32 v60,2013-01-02 20:00:00,
2013-01-02 15:05:00,23.2,5.0,30.08,North,353,0.0,4.0,45,0.00,,,-99.99,Weather View 32 v60,2013-01-02 20:05:00,
2013-01-02 15:10:00,23.4,5.1,30.08,North,353,0.0,4.0,45,0.00,,,-99.99,Weather View 32 v60,2013-01-02 20:10:00,
2013-01-02 15:15:00,23.4,5.1,30.08,North,353,0.0,4.0,45,0.00,,,-99.99,Weather View 32 v60,2013-01-02 20:15:00,
2013-01-02 15:25:00,23.4,5.1,30.08,North,353,0.0,4.0,45,0.00,,,-99.99,Weather View 32 v60,2013-01-02 20:25:00,
2013-01-02 15:30:00,23.4,5.1,30.08,North,353,0.0,4.0,45,0.00,,,-99.99,Weather View 32 v60,2013-01-02 20:30:00,
2013-01-02 15:35:00,23.5,5.3,30.08,North,353,0.0,4.0,45,0.00,,,-99.99,Weather View 32 v60,2013-01-02 20:35:00,
2013-01-02 15:40:00,23.5,5.3,30.08,North,353,0.0,4.0,45,0.00,,,-99.99,Weather View 32 v60,2013-01-02 20:40:00,
2013-01-02 15:45:00,23.5,5.3,30.08,North,353,0.0,4.0,45,0.00,,,-99.99,Weather View 32 v60,2013-01-02 20:45:00,
2013-01-02 15:50:00,23.5,5.3,30.08,North,353,0.0,0.0,45,0.00,,,-99.99,Weather View 32 v60,2013-01-02 20:50:00,
2013-01-02 15:55:00,23.5,5.3,30.08,North,353,0.0,0.0,45,0.00,,,-99.99,Weather View 32 v60,2013-01-02 20:55:00,
2013-01-02 16:00:00,23.5,5.3,30.08,North,353,0.0,0.0,45,0.00,,,-99.99,Weather View 32 v60,2013-01-02 21:00:00,
2013-01-02 16:05:00,23.5,5.3,30.08,North,353,0.0,0.0,45,0.00,,,-99.99,Weather View 32 v60,2013-01-02 21:05:00,
2013-01-02 16:15:00,23.5,4.8,30.08,North,353,0.0,0.0,44,0.00,,,-99.99,Weather View 32 v60,2013-01-02 21:15:00,
2013-01-02 16:20:00,23.5,4.8,30.08,North,353,0.0,0.0,44,0.00,,,-99.99,Weather View 32 v60,2013-01-02 21:20:00,
2013-01-02 16:25:00,23.5,4.8,30.08,North,353,0.0,0.0,44,0.00,,,-99.99,Weather View 32 v60,2013-01-02 21:25:00,
2013-01-02 16:30:00,23.5,4.8,30.08,North,353,0.0,0.0,44,0.00,,,-99.99,Weather View 32 v60,2013-01-02 21:30:00,
2013-01-02 16:35:00,23.5,4.8,30.08,North,353,0.0,0.0,44,0.00,,,-99.99,Weather View 32 v60,2013-01-02 21:35:00,
2013-01-02 16:40:00,23.5,4.8,30.08,North,353,0.0,0.0,44,0.00,,,-99.99,Weather View 32 v60,2013-01-02 21:40:00,
2013-01-02 16:45:00,23.5,4.8,30.08,North,353,0.0,0.0,44,0.00,,,-99.99,Weather View 32 v60,2013-01-02 21:45:00,
2013-01-02 16:50:00,23.5,4.8,30.11,North,353,0.0,0.0,44,0.00,,,-99.99,Weather View 32 v60,2013-01-02 21:50:00,
2013-01-02 16:55:00,23.5,4.8,30.11,North,353,0.0,0.0,44,0.00,,,-99.99,Weather View 32 v60,2013-01-02 21:55:00,
2013-01-02 17:00:00,23.5,4.8,30.11,North,357,0.0,4.0,44,0.00,,,-99.99,Weather View 32 v60,2013-01-02 22:00:00,
2013-01-02 17:10:00,23.5,4.8,30.11,North,357,0.0,4.0,44,0.00,,,-99.99,Weather View 32 v60,2013-01-02 22:10:00,
2013-01-02 17:15:00,23.5,4.8,30.11,North,357,0.0,4.0,44,0.00,,,-99.99,Weather View 32 v60,2013-01-02 22:15:00,
2013-01-02 17:20:00,23.5,4.8,30.11,North,357,0.0,4.0,44,0.00,,,-99.99,Weather View 32 v60,2013-01-02 22:20:00,
2013-01-02 17:25:00,23.5,4.8,30.11,North,357,0.0,4.0,44,0.00,,,-99.99,Weather View 32 v60,2013-01-02 22:25:00,
2013-01-02 17:30:00,23.5,4.8,30.11,North,357,0.0,4.0,44,0.00,,,-99.99,Weather View 32 v60,2013-01-02 22:30:00,
2013-01-02 17:40:00,23.5,4.8,30.11,North,357,0.0,4.0,44,0.00,,,-99.99,Weather View 32 v60,2013-01-02 22:40:00,
2013-01-02 17:50:00,23.4,5.1,30.11,North,357,0.0,4.0,45,0.00,,,-99.99,Weather View 32 v60,2013-01-02 22:50:00,
2013-01-02 17:55:00,23.4,5.1,30.11,North,357,0.0,4.0,45,0.00,,,-99.99,Weather View 32 v60,2013-01-02 22:55:00,
2013-01-02 18:00:00,23.4,5.1,30.11,North,357,0.0,4.0,45,0.00,,,-99.99,Weather View 32 v60,2013-01-02 23:00:00,
2013-01-02 18:10:00,23.4,5.1,30.11,North,357,0.0,0.0,45,0.00,,,-99.99,Weather View 32 v60,2013-01-02 23:10:00,
2013-01-02 18:15:00,23.4,5.1,30.11,North,357,0.0,0.0,45,0.00,,,-99.99,Weather View 32 v60,2013-01-02 23:15:00,
2013-01-02 18:20:00,23.4,5.1,30.11,North,357,0.0,0.0,45,0.00,,,-99.99,Weather View 32 v60,2013-01-02 23:20:00,
2013-01-02 18:25:00,23.4,5.1,30.11,North,357,0.0,0.0,45,0.00,,,-99.99,Weather View 32 v60,2013-01-02 23:25:00,
2013-01-02 18:30:00,23.4,5.1,30.11,North,357,0.0,0.0,45,0.00,,,-99.99,Weather View 32 v60,2013-01-02 23:30:00,
2013-01-02 18:35:00,23.4,5.1,30.11,North,357,0.0,0.0,45,0.00,,,-99.99,Weather View 32 v60,2013-01-02 23:35:00,
2013-01-02 18:40:00,23.4,5.1,30.11,North,357,0.0,0.0,45,0.00,,,-99.99,Weather View 32 v60,2013-01-02 23:40:00,
2013-01-02 18:45:00,23.4,5.1,30.11,North,357,0.0,0.0,45,0.00,,,-99.99,Weather View 32 v60,2013-01-02 23:45:00,
2013-01-02 18:50:00,23.4,5.1,30.11,North,357,0.0,0.0,45,0.00,,,-99.99,Weather View 32 v60,2013-01-02 23:50:00,
2013-01-02 18:55:00,23.4,5.1,30.11,North,357,0.0,0.0,45,0.00,,,-99.99,Weather View 32 v60,2013-01-02 23:55:00,
2013-01-02 19:00:00,23.4,5.1,30.11,North,357,0.0,0.0,45,0.00,,,-99.99,Weather View 32 v60,2013-01-03 00:00:00,
2013-01-02 19:05:00,23.4,5.1,30.11,North,357,0.0,0.0,45,0.00,,,-99.99,Weather View 32 v60,2013-01-03 00:05:00,
2013-01-02 19:10:00,23.4,5.1,30.11,North,357,0.0,0.0,45,0.00,,,-99.99,Weather View 32 v60,2013-01-03 00:10:00,
2013-01-02 19:15:00,23.4,5.1,30.11,North,357,0.0,0.0,45,0.00,,,-99.99,Weather View 32 v60,2013-01-03 00:15:00,
2013-01-02 19:20:00,23.4,5.1,30.11,North,357,0.0,0.0,45,0.00,,,-99.99,Weather View 32 v60,2013-01-03 00:20:00,
2013-01-02 19:25:00,23.4,5.6,30.11,North,357,0.0,0.0,46,0.00,,,-99.99,Weather View 32 v60,2013-01-03 00:25:00,
2013-01-02 19:30:00,23.5,5.8,30.11,North,357,0.0,0.0,46,0.00,,,-99.99,Weather View 32 v60,2013-01-03 00:30:00,
2013-01-02 19:40:00,23.5,5.8,30.11,North,357,0.0,0.0,46,0.00,,,-99.99,Weather View 32 v60,2013-01-03 00:40:00,
2013-01-02 19:45:00,23.5,5.8,30.11,North,357,0.0,0.0,46,0.00,,,-99.99,Weather View 32 v60,2013-01-03 00:45:00,
2013-01-02 19:50:00,23.5,5.8,30.11,North,357,0.0,0.0,46,0.00,,,-99.99,Weather View 32 v60,2013-01-03 00:50:00,
2013-01-02 20:00:00,23.5,5.8,30.11,North,357,0.0,0.0,46,0.00,,,-99.99,Weather View 32 v60,2013-01-03 01:00:00,
2013-01-02 20:05:00,23.5,5.8,30.11,North,357,0.0,0.0,46,0.00,,,-99.99,Weather View 32 v60,2013-01-03 01:05:00,
2013-01-02 20:10:00,23.5,5.8,30.11,North,357,0.0,0.0,46,0.00,,,-99.99,Weather View 32 v60,2013-01-03 01:10:00,
2013-01-02 20:15:00,23.5,6.3,30.11,North,357,0.0,0.0,47,0.00,,,-99.99,Weather View 32 v60,2013-01-03 01:15:00,
2013-01-02 20:20:00,23.5,6.3,30.11,North,357,0.0,0.0,47,0.00,,,-99.99,Weather View 32 v60,2013-01-03 01:20:00,
2013-01-02 20:25:00,23.5,6.3,30.11,North,357,0.0,0.0,47,0.00,,,-99.99,Weather View 32 v60,2013-01-03 01:25:00,
2013-01-02 20:30:00,23.5,6.3,30.11,North,357,0.0,0.0,47,0.00,,,-99.99,Weather View 32 v60,2013-01-03 01:30:00,
2013-01-02 20:35:00,23.5,6.3,30.08,North,357,0.0,0.0,47,0.00,,,-99.99,Weather View 32 v60,2013-01-03 01:35:00,
2013-01-02 20:40:00,23.5,6.7,30.08,North,357,0.0,0.0,48,0.00,,,-99.99,Weather View 32 v60,2013-01-03 01:40:00,
2013-01-02 20:45:00,23.7,6.9,30.08,North,357,0.0,0.0,48,0.00,,,-99.99,Weather View 32 v60,2013-01-03 01:45:00,
2013-01-02 20:50:00,23.7,6.9,30.08,North,357,0.0,0.0,48,0.00,,,-99.99,Weather View 32 v60,2013-01-03 01:50:00,
2013-01-02 21:00:00,23.7,7.3,30.08,North,357,0.0,0.0,49,0.00,,,-99.99,Weather View 32 v60,2013-01-03 02:00:00,
2013-01-02 21:05:00,23.7,7.3,30.08,North,357,0.0,0.0,49,0.00,,,-99.99,Weather View 32 v60,2013-01-03 02:05:00,
2013-01-02 21:10:00,23.9,7.5,30.08,North,357,0.0,0.0,49,0.00,,,-99.99,Weather View 32 v60,2013-01-03 02:10:00,
2013-01-02 21:15:00,23.9,7.5,30.08,North,357,0.0,0.0,49,0.00,,,-99.99,Weather View 32 v60,2013-01-03 02:15:00,
2013-01-02 21:25:00,23.9,8.0,30.08,North,357,0.0,0.0,50,0.00,,,-99.99,Weather View 32 v60,2013-01-03 02:25:00,
2013-01-02 21:30:00,23.9,8.0,30.08,North,357,0.0,0.0,50,0.00,,,-99.99,Weather View 32 v60,2013-01-03 02:30:00,
2013-01-02 21:35:00,24.1,8.1,30.08,North,357,0.0,0.0,50,0.00,,,-99.99,Weather View 32 v60,2013-01-03 02:35:00,
2013-01-02 21:42:00,24.1,8.1,30.08,North,357,0.0,0.0,50,0.00,,,-99.99,Weather View 32 v60,2013-01-03 02:42:00,
2013-01-02 21:50:00,24.1,8.6,30.08,North,357,0.0,0.0,51,0.00,,,-99.99,Weather View 32 v60,2013-01-03 02:50:00,
2013-01-02 21:55:00,24.1,8.6,30.08,North,357,0.0,0.0,51,0.00,,,-99.99,Weather View 32 v60,2013-01-03 02:55:00,
2013-01-02 22:00:00,24.3,9.2,30.08,North,357,0.0,0.0,52,0.00,,,-99.99,Weather View 32 v60,2013-01-03 03:00:00,
2013-01-02 22:05:00,24.3,9.2,30.08,North,357,0.0,0.0,52,0.00,,,-99.99,Weather View 32 v60,2013-01-03 03:05:00,
2013-01-02 22:15:00,24.4,9.3,30.08,SSE,151,0.0,3.0,52,0.00,,,-99.99,Weather View 32 v60,2013-01-03 03:15:00,
2013-01-02 22:20:00,24.4,9.3,30.08,SSE,158,3.0,4.0,52,0.00,,,-99.99,Weather View 32 v60,2013-01-03 03:20:00,
2013-01-02 22:25:00,24.4,9.3,30.08,SSE,152,4.0,4.0,52,0.00,,,-99.99,Weather View 32 v60,2013-01-03 03:25:00,
2013-01-02 22:50:00,24.8,9.7,30.08,South,179,3.0,4.0,52,0.00,,,-99.99,Weather View 32 v60,2013-01-03 03:50:00,
2013-01-02 22:55:00,24.8,9.7,30.05,South,171,3.0,4.0,52,0.00,,,-99.99,Weather View 32 v60,2013-01-03 03:55:00,
2013-01-02 23:00:00,25.0,9.8,30.05,South,183,4.0,5.0,52,0.00,,,-99.99,Weather View 32 v60,2013-01-03 04:00:00,
2013-01-02 23:05:00,25.0,9.8,30.08,SSW,195,0.0,5.0,52,0.00,,,-99.99,Weather View 32 v60,2013-01-03 04:05:00,
2013-01-02 23:10:00,25.0,9.8,30.08,SW,222,0.0,5.0,52,0.00,,,-99.99,Weather View 32 v60,2013-01-03 04:10:00,
2013-01-02 23:15:00,25.0,9.8,30.08,South,178,2.0,5.0,52,0.00,,,-99.99,Weather View 32 v60,2013-01-03 04:15:00,
2013-01-02 23:20:00,25.0,9.4,30.08,SSE,162,3.0,5.0,51,0.00,,,-99.99,Weather View 32 v60,2013-01-03 04:20:00,
2013-01-02 23:25:00,25.0,9.4,30.08,South,172,0.0,5.0,51,0.00,,,-99.99,Weather View 32 v60,2013-01-03 04:25:00,
2013-01-02 23:30:00,25.0,9.4,30.08,South,186,3.0,6.0,51,0.00,,,-99.99,Weather View 32 v60,2013-01-03 04:30:00,
2013-01-02 23:35:00,25.0,9.4,30.08,WSW,254,2.0,6.0,51,0.00,,,-99.99,Weather View 32 v60,2013-01-03 04:35:00,
2013-01-02 23:40:00,25.0,9.0,30.08,SSE,159,4.0,6.0,50,0.00,,,-99.99,Weather View 32 v60,2013-01-03 04:40:00,
2013-01-02 23:45:00,25.0,9.0,30.08,South,182,3.0,6.0,50,0.00,,,-99.99,Weather View 32 v60,2013-01-03 04:45:00,
2013-01-02 23:55:00,25.0,8.5,30.08,SSW,194,2.0,6.0,49,0.00,,,-99.99,Weather View 32 v60,2013-01-03 04:55:00,